Time,TemperatureF,DewpointF,PressureIn,WindDirection,WindDirectionDegrees,WindSpeedMPH,WindSpeedGustMPH,Humidity,HourlyPrecipIn,Conditions,Clouds,dailyrainin,SoftwareType,DateUTC
2013-08-18 00:03:00,64.0,57.7,30.00,South,169,0.0,1.0,80,0.00,,FEW,0.00,VWS V14.01,2013-08-18 07:03:00,
2013-08-18 00:08:00,64.0,57.4,30.00,South,169,0.0,2.0,79,0.00,,FEW,0.00,VWS V14.01,2013-08-18 07:08:00,
2013-08-18 00:13:00,64.0,57.7,30.00,South,169,0.0,2.0,80,0.00,,FEW,0.00,VWS V14.01,2013-08-18 07:13:00,
2013-08-18 00:18:00,64.0,57.7,30.01,South,169,0.0,2.0,80,0.00,,FEW,0.00,VWS V14.01,2013-08-18 07:18:00,
2013-08-18 00:23:00,64.0,57.4,30.01,South,169,0.0,2.0,79,0.00,,FEW,0.00,VWS V14.01,2013-08-18 07:23:00,
2013-08-18 00:28:00,64.2,57.9,30.01,South,169,0.0,2.0,80,0.00,,FEW,0.00,VWS V14.01,2013-08-18 07:28:00,
2013-08-18 00:33:00,64.0,57.7,30.00,South,169,0.0,1.0,80,0.00,,FEW,0.00,VWS V14.01,2013-08-18 07:33:00,
2013-08-18 00:38:00,64.0,57.4,30.00,South,169,0.0,2.0,79,0.00,,FEW,0.00,VWS V14.01,2013-08-18 07:38:00,
2013-08-18 00:44:00,64.0,57.4,30.00,South,170,0.0,2.0,79,0.00,,FEW,0.00,VWS V14.01,2013-08-18 07:44:00,
2013-08-18 00:49:00,63.9,57.3,30.00,South,169,0.0,2.0,79,0.00,,FEW,0.00,VWS V14.01,2013-08-18 07:49:00,
2013-08-18 00:54:00,63.9,57.3,30.00,South,169,0.0,2.0,79,0.00,,FEW,0.00,VWS V14.01,2013-08-18 07:54:00,
2013-08-18 00:59:00,63.9,57.6,30.00,South,169,0.0,2.0,80,0.00,,FEW,0.00,VWS V14.01,2013-08-18 07:59:00,
2013-08-18 01:04:00,63.9,57.3,30.00,South,169,0.0,2.0,79,0.00,,FEW,0.00,VWS V14.01,2013-08-18 08:04:00,
2013-08-18 01:09:00,63.9,57.3,30.00,South,169,0.0,2.0,79,0.00,,FEW,0.00,VWS V14.01,2013-08-18 08:09:00,
2013-08-18 01:14:00,63.9,57.6,30.00,South,169,0.0,2.0,80,0.00,,FEW,0.00,VWS V14.01,2013-08-18 08:14:00,
2013-08-18 01:19:00,63.9,57.6,30.00,South,169,0.0,2.0,80,0.00,,FEW,0.00,VWS V14.01,2013-08-18 08:19:00,
2013-08-18 01:24:00,63.7,57.1,30.00,South,169,0.0,2.0,79,0.00,,FEW,0.00,VWS V14.01,2013-08-18 08:24:00,
2013-08-18 01:29:00,63.7,57.4,30.00,South,169,0.0,2.0,80,0.00,,FEW,0.00,VWS V14.01,2013-08-18 08:29:00,
2013-08-18 01:34:00,63.7,57.4,30.00,South,169,0.0,0.0,80,0.00,,FEW,0.00,VWS V14.01,2013-08-18 08:34:00,
2013-08-18 01:39:00,63.5,57.6,30.00,South,169,0.0,0.0,81,0.00,,FEW,0.00,VWS V14.01,2013-08-18 08:39:00,
2013-08-18 01:44:00,63.4,57.5,30.00,South,169,0.0,0.0,81,0.00,,FEW,0.00,VWS V14.01,2013-08-18 08:44:00,
2013-08-18 01:49:00,63.4,57.5,30.00,South,169,0.0,0.0,81,0.00,,FEW,0.00,VWS V14.01,2013-08-18 08:49:00,
2013-08-18 01:54:00,63.2,56.9,30.00,South,169,0.0,0.0,80,0.00,,FEW,0.00,VWS V14.01,2013-08-18 08:54:00,
2013-08-18 01:59:00,63.1,56.8,30.00,South,169,0.0,0.0,80,0.00,,FEW,0.00,VWS V14.01,2013-08-18 08:59:00,
2013-08-18 02:04:00,62.9,57.0,30.00,South,169,0.0,0.0,81,0.00,,FEW,0.00,VWS V14.01,2013-08-18 09:04:00,
2013-08-18 02:09:00,62.7,56.8,30.00,South,169,0.0,0.0,81,0.00,,FEW,0.00,VWS V14.01,2013-08-18 09:09:00,
2013-08-18 02:14:00,62.6,56.7,30.00,South,169,0.0,0.0,81,0.00,,FEW,0.00,VWS V14.01,2013-08-18 09:14:00,
2013-08-18 02:19:00,62.6,56.7,30.00,South,169,0.0,0.0,81,0.00,,FEW,0.00,VWS V14.01,2013-08-18 09:19:00,
2013-08-18 02:24:00,62.4,56.8,30.00,South,169,0.0,0.0,82,0.00,,FEW,0.00,VWS V14.01,2013-08-18 09:24:00,
2013-08-18 02:29:00,62.4,56.8,30.00,South,169,0.0,0.0,82,0.00,,FEW,0.00,VWS V14.01,2013-08-18 09:29:00,
2013-08-18 02:34:00,62.4,56.5,30.00,South,169,0.0,0.0,81,0.00,,FEW,0.00,VWS V14.01,2013-08-18 09:34:00,
2013-08-18 02:39:00,62.4,56.8,30.00,South,169,0.0,0.0,82,0.00,,FEW,0.00,VWS V14.01,2013-08-18 09:39:00,
2013-08-18 02:44:00,62.4,56.8,30.00,South,169,0.0,0.0,82,0.00,,FEW,0.00,VWS V14.01,2013-08-18 09:44:00,
2013-08-18 02:49:00,62.4,56.8,30.00,South,169,0.0,0.0,82,0.00,,FEW,0.00,VWS V14.01,2013-08-18 09:49:00,
2013-08-18 02:54:00,62.3,56.7,30.00,South,169,0.0,0.0,82,0.00,,FEW,0.00,VWS V14.01,2013-08-18 09:54:00,
2013-08-18 02:59:00,62.3,56.7,30.00,South,169,0.0,0.0,82,0.00,,FEW,0.00,VWS V14.01,2013-08-18 09:59:00,
2013-08-18 03:04:00,62.3,56.7,30.00,South,169,0.0,0.0,82,0.00,,FEW,0.00,VWS V14.01,2013-08-18 10:04:00,
2013-08-18 03:09:00,62.3,56.7,30.00,South,169,0.0,0.0,82,0.00,,FEW,0.00,VWS V14.01,2013-08-18 10:09:00,
2013-08-18 03:14:00,62.3,56.7,30.01,South,169,0.0,0.0,82,0.00,,FEW,0.00,VWS V14.01,2013-08-18 10:14:00,
2013-08-18 03:19:00,62.1,56.5,30.01,South,169,0.0,0.0,82,0.00,,FEW,0.00,VWS V14.01,2013-08-18 10:19:00,
2013-08-18 03:24:00,62.1,56.5,30.01,South,169,0.0,0.0,82,0.00,,FEW,0.00,VWS V14.01,2013-08-18 10:24:00,
2013-08-18 03:29:00,62.1,56.5,30.01,South,169,0.0,0.0,82,0.00,,FEW,0.00,VWS V14.01,2013-08-18 10:29:00,
2013-08-18 03:34:00,62.0,56.5,30.01,South,169,0.0,0.0,82,0.00,,FEW,0.00,VWS V14.01,2013-08-18 10:34:00,
2013-08-18 03:39:00,61.8,56.2,30.01,South,169,0.0,0.0,82,0.00,,FEW,0.00,VWS V14.01,2013-08-18 10:39:00,
2013-08-18 03:44:00,61.5,56.0,30.01,South,169,0.0,0.0,82,0.00,,FEW,0.00,VWS V14.01,2013-08-18 10:44:00,
2013-08-18 03:49:00,61.3,55.8,30.01,South,169,0.0,0.0,82,0.00,,FEW,0.00,VWS V14.01,2013-08-18 10:49:00,
2013-08-18 03:54:00,61.0,55.5,30.01,South,169,0.0,0.0,82,0.00,,FEW,0.00,VWS V14.01,2013-08-18 10:54:00,
2013-08-18 03:59:00,60.9,55.4,30.01,South,169,0.0,0.0,82,0.00,,FEW,0.00,VWS V14.01,2013-08-18 10:59:00,
2013-08-18 04:04:00,60.5,55.0,30.01,South,169,0.0,0.0,82,0.00,,FEW,0.00,VWS V14.01,2013-08-18 11:04:00,
2013-08-18 04:09:00,60.2,54.7,30.01,South,169,0.0,0.0,82,0.00,,FEW,0.00,VWS V14.01,2013-08-18 11:09:00,
2013-08-18 04:14:00,60.1,54.6,30.01,South,169,0.0,0.0,82,0.00,,FEW,0.00,VWS V14.01,2013-08-18 11:14:00,
2013-08-18 04:19:00,59.8,54.3,30.01,South,169,0.0,0.0,82,0.00,,FEW,0.00,VWS V14.01,2013-08-18 11:19:00,
2013-08-18 04:24:00,59.5,54.0,30.01,South,169,0.0,0.0,82,0.00,,FEW,0.00,VWS V14.01,2013-08-18 11:24:00,
2013-08-18 04:29:00,59.3,54.2,30.01,South,169,0.0,0.0,83,0.00,,FEW,0.00,VWS V14.01,2013-08-18 11:29:00,
2013-08-18 04:34:00,59.0,53.8,30.01,South,169,0.0,0.0,83,0.00,,FEW,0.00,VWS V14.01,2013-08-18 11:34:00,
2013-08-18 04:39:00,58.9,53.8,30.01,South,169,0.0,0.0,83,0.00,,FEW,0.00,VWS V14.01,2013-08-18 11:39:00,
2013-08-18 04:44:00,58.6,53.5,30.01,South,169,0.0,0.0,83,0.00,,FEW,0.00,VWS V14.01,2013-08-18 11:44:00,
2013-08-18 04:49:00,58.4,53.6,30.01,South,169,0.0,0.0,84,0.00,,FEW,0.00,VWS V14.01,2013-08-18 11:49:00,
2013-08-18 04:54:00,58.3,53.5,30.01,South,169,0.0,0.0,84,0.00,,FEW,0.00,VWS V14.01,2013-08-18 11:54:00,
2013-08-18 04:59:00,58.1,53.3,30.01,South,169,0.0,0.0,84,0.00,,FEW,0.00,VWS V14.01,2013-08-18 11:59:00,
2013-08-18 05:04:00,58.0,53.2,30.01,South,169,0.0,0.0,84,0.00,,FEW,0.00,VWS V14.01,2013-08-18 12:04:00,
2013-08-18 05:09:00,57.8,53.3,30.01,South,169,0.0,0.0,85,0.00,,FEW,0.00,VWS V14.01,2013-08-18 12:09:00,
2013-08-18 05:14:00,57.6,53.1,30.01,South,169,0.0,0.0,85,0.00,,FEW,0.00,VWS V14.01,2013-08-18 12:14:00,
2013-08-18 05:19:00,57.6,53.1,30.01,South,170,0.0,0.0,85,0.00,,FEW,0.00,VWS V14.01,2013-08-18 12:19:00,
2013-08-18 05:24:00,57.5,53.3,30.01,South,169,0.0,0.0,86,0.00,,FEW,0.00,VWS V14.01,2013-08-18 12:24:00,
2013-08-18 05:29:00,57.5,53.3,30.01,South,169,0.0,0.0,86,0.00,,FEW,0.00,VWS V14.01,2013-08-18 12:29:00,
2013-08-18 05:34:00,57.3,53.2,30.01,South,169,0.0,0.0,86,0.00,,FEW,0.00,VWS V14.01,2013-08-18 12:34:00,
2013-08-18 05:39:00,57.3,53.5,30.01,South,169,0.0,0.0,87,0.00,,FEW,0.00,VWS V14.01,2013-08-18 12:39:00,
2013-08-18 05:44:00,57.3,53.5,30.02,South,169,0.0,0.0,87,0.00,,FEW,0.00,VWS V14.01,2013-08-18 12:44:00,
2013-08-18 05:49:00,57.3,53.5,30.02,South,169,0.0,0.0,87,0.00,,FEW,0.00,VWS V14.01,2013-08-18 12:49:00,
2013-08-18 05:54:00,57.3,53.8,30.02,South,169,0.0,0.0,88,0.00,,FEW,0.00,VWS V14.01,2013-08-18 12:54:00,
2013-08-18 05:59:00,57.5,54.0,30.02,South,169,0.0,0.0,88,0.00,,FEW,0.00,VWS V14.01,2013-08-18 12:59:00,
2013-08-18 06:04:00,57.5,54.0,30.02,South,169,0.0,0.0,88,0.00,,FEW,0.00,VWS V14.01,2013-08-18 13:04:00,
2013-08-18 06:09:00,57.5,54.3,30.02,South,169,0.0,0.0,89,0.00,,FEW,0.00,VWS V14.01,2013-08-18 13:09:00,
2013-08-18 06:14:00,57.5,54.3,30.02,South,169,0.0,0.0,89,0.00,,FEW,0.00,VWS V14.01,2013-08-18 13:14:00,
2013-08-18 06:19:00,57.6,54.4,30.02,NNE,23,0.0,0.0,89,0.00,,FEW,0.00,VWS V14.01,2013-08-18 13:19:00,
2013-08-18 06:24:00,57.6,54.4,30.02,SSE,161,0.0,1.0,89,0.00,,FEW,0.00,VWS V14.01,2013-08-18 13:24:00,
2013-08-18 06:29:00,57.6,54.4,30.02,SSE,161,0.0,1.0,89,0.00,,FEW,0.00,VWS V14.01,2013-08-18 13:29:00,
2013-08-18 06:34:00,57.8,54.6,30.02,SSE,161,0.0,0.0,89,0.00,,FEW,0.00,VWS V14.01,2013-08-18 13:34:00,
2013-08-18 06:39:00,57.8,54.6,30.02,SSE,161,0.0,0.0,89,0.00,,FEW,0.00,VWS V14.01,2013-08-18 13:39:00,
2013-08-18 06:44:00,57.8,54.6,30.03,SSE,161,0.0,0.0,89,0.00,,FEW,0.00,VWS V14.01,2013-08-18 13:44:00,
2013-08-18 06:49:00,58.0,54.8,30.03,SSE,161,0.0,0.0,89,0.00,,FEW,0.00,VWS V14.01,2013-08-18 13:49:00,
2013-08-18 06:54:00,58.0,54.8,30.03,SSE,161,0.0,0.0,89,0.00,,FEW,0.00,VWS V14.01,2013-08-18 13:54:00,
2013-08-18 06:59:00,58.1,54.9,30.03,SSE,161,0.0,0.0,89,0.00,,FEW,0.00,VWS V14.01,2013-08-18 13:59:00,
2013-08-18 07:04:00,58.3,55.1,30.03,SSE,161,0.0,0.0,89,0.00,,FEW,0.00,VWS V14.01,2013-08-18 14:04:00,
2013-08-18 07:09:00,58.3,55.1,30.03,SSE,161,0.0,0.0,89,0.00,,FEW,0.00,VWS V14.01,2013-08-18 14:09:00,
2013-08-18 07:14:00,58.4,55.2,30.03,SSE,161,0.0,0.0,89,0.00,,FEW,0.00,VWS V14.01,2013-08-18 14:14:00,
2013-08-18 07:19:00,58.4,54.9,30.03,SSE,161,0.0,0.0,88,0.00,,FEW,0.00,VWS V14.01,2013-08-18 14:19:00,
2013-08-18 07:24:00,58.6,55.1,30.03,SSE,161,0.0,0.0,88,0.00,,FEW,0.00,VWS V14.01,2013-08-18 14:24:00,
2013-08-18 07:29:00,58.7,55.2,30.03,SSE,161,0.0,0.0,88,0.00,,FEW,0.00,VWS V14.01,2013-08-18 14:29:00,
2013-08-18 07:34:00,58.9,55.4,30.03,SSE,161,0.0,0.0,88,0.00,,FEW,0.00,VWS V14.01,2013-08-18 14:34:00,
2013-08-18 07:39:00,59.0,55.1,30.03,SE,141,0.0,0.0,87,0.00,,FEW,0.00,VWS V14.01,2013-08-18 14:39:00,
2013-08-18 07:44:00,59.2,55.0,30.03,East,79,0.0,0.0,86,0.00,,FEW,0.00,VWS V14.01,2013-08-18 14:44:00,
2013-08-18 07:49:00,59.3,54.8,30.03,East,79,0.0,0.0,85,0.00,,FEW,0.00,VWS V14.01,2013-08-18 14:49:00,
2013-08-18 07:54:00,59.5,55.0,30.03,East,79,0.0,0.0,85,0.00,,FEW,0.00,VWS V14.01,2013-08-18 14:54:00,
2013-08-18 07:59:00,59.8,55.3,30.03,East,79,0.0,0.0,85,0.00,,FEW,0.00,VWS V14.01,2013-08-18 14:59:00,
2013-08-18 08:04:00,59.9,55.1,30.03,East,79,0.0,0.0,84,0.00,,FEW,0.00,VWS V14.01,2013-08-18 15:04:00,
2013-08-18 08:09:00,60.1,55.3,30.03,East,79,0.0,0.0,84,0.00,,FEW,0.00,VWS V14.01,2013-08-18 15:09:00,
2013-08-18 08:14:00,60.4,55.5,30.03,East,79,0.0,0.0,84,0.00,,FEW,0.00,VWS V14.01,2013-08-18 15:14:00,
2013-08-18 08:19:00,60.4,55.2,30.03,East,79,0.0,0.0,83,0.00,,FEW,0.00,VWS V14.01,2013-08-18 15:19:00,
2013-08-18 08:24:00,60.5,55.3,30.03,NNE,33,0.0,0.0,83,0.00,,FEW,0.00,VWS V14.01,2013-08-18 15:24:00,
2013-08-18 08:29:00,60.5,55.3,30.04,NNE,21,0.0,0.0,83,0.00,,FEW,0.00,VWS V14.01,2013-08-18 15:29:00,
2013-08-18 08:34:00,60.9,55.7,30.04,NNE,15,0.0,0.0,83,0.00,,FEW,0.00,VWS V14.01,2013-08-18 15:34:00,
2013-08-18 08:39:00,61.3,56.1,30.04,NNE,15,0.0,0.0,83,0.00,,FEW,0.00,VWS V14.01,2013-08-18 15:39:00,
2013-08-18 08:45:00,61.5,56.3,30.03,ESE,116,0.0,0.0,83,0.00,,FEW,0.00,VWS V14.01,2013-08-18 15:45:00,
2013-08-18 08:50:00,61.6,56.1,30.03,ESE,120,0.0,0.0,82,0.00,,FEW,0.00,VWS V14.01,2013-08-18 15:50:00,
2013-08-18 08:55:00,61.8,56.2,30.03,ESE,120,0.0,0.0,82,0.00,,FEW,0.00,VWS V14.01,2013-08-18 15:55:00,
2013-08-18 09:00:00,62.1,56.5,30.04,ESE,120,0.0,0.0,82,0.00,,FEW,0.00,VWS V14.01,2013-08-18 16:00:00,
2013-08-18 09:05:00,62.6,56.7,30.04,ESE,120,0.0,0.0,81,0.00,,FEW,0.00,VWS V14.01,2013-08-18 16:05:00,
2013-08-18 09:10:00,62.7,56.8,30.04,SSE,164,0.0,0.0,81,0.00,,FEW,0.00,VWS V14.01,2013-08-18 16:10:00,
2013-08-18 09:15:00,62.7,56.8,30.04,SE,141,0.0,0.0,81,0.00,,FEW,0.00,VWS V14.01,2013-08-18 16:15:00,
2013-08-18 09:20:00,62.9,56.3,30.04,SE,144,0.0,0.0,79,0.00,,FEW,0.00,VWS V14.01,2013-08-18 16:20:00,
2013-08-18 09:25:00,63.1,56.5,30.04,SE,144,0.0,0.0,79,0.00,,FEW,0.00,VWS V14.01,2013-08-18 16:25:00,
2013-08-18 09:30:00,63.2,56.9,30.04,SE,135,0.0,0.0,80,0.00,,FEW,0.00,VWS V14.01,2013-08-18 16:30:00,
2013-08-18 09:35:00,63.7,56.4,30.04,ESE,109,0.0,0.0,77,0.00,,FEW,0.00,VWS V14.01,2013-08-18 16:35:00,
2013-08-18 09:40:00,64.3,57.0,30.04,ESE,109,0.0,0.0,77,0.00,,FEW,0.00,VWS V14.01,2013-08-18 16:40:00,
2013-08-18 09:45:00,65.0,56.2,30.04,ENE,60,0.0,0.0,73,0.00,,FEW,0.00,VWS V14.01,2013-08-18 16:45:00,
2013-08-18 09:50:00,65.5,56.6,30.04,South,176,0.0,0.0,73,0.00,,FEW,0.00,VWS V14.01,2013-08-18 16:50:00,
2013-08-18 09:55:00,65.3,57.2,30.04,ESE,120,0.0,0.0,75,0.00,,FEW,0.00,VWS V14.01,2013-08-18 16:55:00,
2013-08-18 10:00:00,65.2,56.7,30.03,SE,124,0.0,0.0,74,0.00,,FEW,0.00,VWS V14.01,2013-08-18 17:00:00,
2013-08-18 10:05:00,65.3,57.2,30.03,NNE,23,0.0,0.0,75,0.00,,FEW,0.00,VWS V14.01,2013-08-18 17:05:00,
2013-08-18 10:10:00,66.3,57.4,30.03,East,86,0.0,0.0,73,0.00,,FEW,0.00,VWS V14.01,2013-08-18 17:10:00,
2013-08-18 10:15:00,66.6,58.1,30.04,ESE,119,0.0,0.0,74,0.00,,FEW,0.00,VWS V14.01,2013-08-18 17:15:00,
2013-08-18 10:20:00,66.3,56.6,30.04,South,182,0.0,0.0,71,0.00,,FEW,0.00,VWS V14.01,2013-08-18 17:20:00,
2013-08-18 10:25:00,66.3,57.0,30.04,SSE,166,0.0,0.0,72,0.00,,FEW,0.00,VWS V14.01,2013-08-18 17:25:00,
2013-08-18 10:30:00,66.4,57.5,30.03,South,186,0.0,0.0,73,0.00,,FEW,0.00,VWS V14.01,2013-08-18 17:30:00,
2013-08-18 10:35:00,66.8,57.1,30.03,SW,230,0.0,0.0,71,0.00,,FEW,0.00,VWS V14.01,2013-08-18 17:35:00,
2013-08-18 10:40:00,67.1,57.4,30.03,South,186,0.0,0.0,71,0.00,,FEW,0.00,VWS V14.01,2013-08-18 17:40:00,
2013-08-18 10:45:00,67.1,57.4,30.03,SSW,201,0.0,0.0,71,0.00,,FEW,0.00,VWS V14.01,2013-08-18 17:45:00,
2013-08-18 10:50:00,67.4,58.1,30.03,South,174,0.0,0.0,72,0.00,,FEW,0.00,VWS V14.01,2013-08-18 17:50:00,
2013-08-18 10:55:00,67.8,58.5,30.03,South,186,0.0,0.0,72,0.00,,FEW,0.00,VWS V14.01,2013-08-18 17:55:00,
2013-08-18 11:00:00,67.8,56.9,30.03,South,186,0.0,0.0,68,0.00,,FEW,0.00,VWS V14.01,2013-08-18 18:00:00,
2013-08-18 11:05:00,68.3,57.3,30.03,ENE,59,0.0,0.0,68,0.00,,FEW,0.00,VWS V14.01,2013-08-18 18:05:00,
2013-08-18 11:10:00,69.1,57.7,30.03,SSE,149,0.0,0.0,67,0.00,,FEW,0.00,VWS V14.01,2013-08-18 18:10:00,
2013-08-18 11:16:00,69.3,56.6,30.03,South,182,0.0,0.0,64,0.00,,FEW,0.00,VWS V14.01,2013-08-18 18:16:00,
2013-08-18 11:21:00,69.3,57.9,30.03,SSE,149,0.0,0.0,67,0.00,,FEW,0.00,VWS V14.01,2013-08-18 18:21:00,
2013-08-18 11:26:00,69.6,57.8,30.03,South,191,0.0,0.0,66,0.00,,FEW,0.00,VWS V14.01,2013-08-18 18:26:00,
2013-08-18 11:31:00,69.6,55.6,30.02,SE,133,0.0,0.0,61,0.00,,FEW,0.00,VWS V14.01,2013-08-18 18:31:00,
2013-08-18 11:37:00,69.8,56.2,30.02,SE,141,0.0,0.0,62,0.00,,FEW,0.00,VWS V14.01,2013-08-18 18:37:00,
2013-08-18 11:42:00,70.3,56.2,30.02,SSE,153,0.0,10.0,61,0.00,,FEW,0.00,VWS V14.01,2013-08-18 18:42:00,
2013-08-18 11:47:00,70.4,56.8,30.02,South,176,0.0,10.0,62,0.00,,FEW,0.00,VWS V14.01,2013-08-18 18:47:00,
2013-08-18 11:52:00,70.9,55.4,30.02,SSE,168,0.0,10.0,58,0.00,,FEW,0.00,VWS V14.01,2013-08-18 18:52:00,
2013-08-18 11:57:00,71.8,54.3,30.02,NNE,15,0.0,10.0,54,0.00,,FEW,0.00,VWS V14.01,2013-08-18 18:57:00,
2013-08-18 12:02:00,72.7,55.1,30.02,South,185,6.0,6.0,54,0.00,,FEW,0.00,VWS V14.01,2013-08-18 19:02:00,
2013-08-18 12:07:00,71.8,53.2,30.02,South,180,4.0,11.0,52,0.00,,FEW,0.00,VWS V14.01,2013-08-18 19:07:00,
2013-08-18 12:12:00,71.5,55.5,30.02,South,188,3.0,11.0,57,0.00,,FEW,0.00,VWS V14.01,2013-08-18 19:12:00,
2013-08-18 12:17:00,71.5,55.0,30.02,South,189,2.0,11.0,56,0.00,,FEW,0.00,VWS V14.01,2013-08-18 19:17:00,
2013-08-18 12:22:00,72.0,56.9,30.02,SE,145,0.0,11.0,59,0.00,,FEW,0.00,VWS V14.01,2013-08-18 19:22:00,
2013-08-18 12:27:00,72.8,55.2,30.02,ESE,114,1.0,11.0,54,0.00,,FEW,0.00,VWS V14.01,2013-08-18 19:27:00,
2013-08-18 12:32:00,73.3,56.7,30.02,NW,315,1.0,4.0,56,0.00,,FEW,0.00,VWS V14.01,2013-08-18 19:32:00,
2013-08-18 12:37:00,73.5,59.2,30.02,South,183,4.0,4.0,61,0.00,,FEW,0.00,VWS V14.01,2013-08-18 19:37:00,
2013-08-18 12:42:00,73.0,57.4,30.02,South,183,9.0,10.0,58,0.00,,FEW,0.00,VWS V14.01,2013-08-18 19:42:00,
2013-08-18 12:47:00,72.8,57.7,30.02,SE,140,3.0,10.0,59,0.00,,FEW,0.00,VWS V14.01,2013-08-18 19:47:00,
2013-08-18 12:52:00,73.2,57.1,30.02,ESE,112,1.0,10.0,57,0.00,,FEW,0.00,VWS V14.01,2013-08-18 19:52:00,
2013-08-18 12:57:00,74.2,56.5,30.02,South,184,1.0,10.0,54,0.00,,FEW,0.00,VWS V14.01,2013-08-18 19:57:00,
2013-08-18 13:02:00,75.3,57.0,30.03,ESE,118,2.0,4.0,53,0.00,,FEW,0.00,VWS V14.01,2013-08-18 20:02:00,
2013-08-18 13:07:00,75.6,57.8,30.03,SSE,148,0.0,5.0,54,0.00,,FEW,0.00,VWS V14.01,2013-08-18 20:07:00,
2013-08-18 13:12:00,75.6,57.3,30.03,NNE,31,0.0,9.0,53,0.00,,FEW,0.00,VWS V14.01,2013-08-18 20:12:00,
2013-08-18 13:17:00,76.1,56.1,30.02,WSW,238,2.0,9.0,50,0.00,,FEW,0.00,VWS V14.01,2013-08-18 20:17:00,
2013-08-18 13:23:00,75.8,56.9,30.02,ENE,76,0.0,9.0,52,0.00,,FEW,0.00,VWS V14.01,2013-08-18 20:23:00,
2013-08-18 13:28:00,74.9,56.6,30.02,South,176,3.0,9.0,53,0.00,,FEW,0.00,VWS V14.01,2013-08-18 20:28:00,
2013-08-18 13:33:00,74.6,56.9,30.02,SE,133,4.0,10.0,54,0.00,,FEW,0.00,VWS V14.01,2013-08-18 20:33:00,
2013-08-18 13:38:00,74.4,58.2,30.02,South,181,1.0,11.0,57,0.00,,FEW,0.00,VWS V14.01,2013-08-18 20:38:00,
2013-08-18 13:43:00,74.4,56.7,30.02,South,187,5.0,11.0,54,0.00,,FEW,0.00,VWS V14.01,2013-08-18 20:43:00,
2013-08-18 13:48:00,74.2,56.5,30.02,South,189,2.0,11.0,54,0.00,,FEW,0.00,VWS V14.01,2013-08-18 20:48:00,
2013-08-18 13:53:00,74.6,55.8,30.02,SE,129,0.0,11.0,52,0.00,,FEW,0.00,VWS V14.01,2013-08-18 20:53:00,
2013-08-18 13:58:00,74.7,57.5,30.02,SSE,148,4.0,11.0,55,0.00,,FEW,0.00,VWS V14.01,2013-08-18 20:58:00,
2013-08-18 14:03:00,74.9,56.6,30.02,SSE,151,1.0,9.0,53,0.00,,FEW,0.00,VWS V14.01,2013-08-18 21:03:00,
2013-08-18 14:08:00,74.7,55.4,30.02,South,189,1.0,9.0,51,0.00,,FEW,0.00,VWS V14.01,2013-08-18 21:08:00,
2013-08-18 14:13:00,74.7,55.4,30.02,South,183,11.0,13.0,51,0.00,,FEW,0.00,VWS V14.01,2013-08-18 21:13:00,
2013-08-18 14:18:00,74.7,57.0,30.02,SSE,158,0.0,13.0,54,0.00,,FEW,0.00,VWS V14.01,2013-08-18 21:18:00,
2013-08-18 14:23:00,75.1,55.8,30.02,ESE,102,5.0,13.0,51,0.00,,FEW,0.00,VWS V14.01,2013-08-18 21:23:00,
2013-08-18 14:28:00,75.3,57.0,30.02,SE,124,2.0,13.0,53,0.00,,FEW,0.00,VWS V14.01,2013-08-18 21:28:00,
2013-08-18 14:33:00,76.0,58.2,30.02,SE,146,3.0,5.0,54,0.00,,FEW,0.00,VWS V14.01,2013-08-18 21:33:00,
2013-08-18 14:38:00,76.0,57.1,30.02,SSW,193,4.0,9.0,52,0.00,,FEW,0.00,VWS V14.01,2013-08-18 21:38:00,
2013-08-18 14:43:00,75.6,57.8,30.02,WSW,241,1.0,9.0,54,0.00,,FEW,0.00,VWS V14.01,2013-08-18 21:43:00,
2013-08-18 14:48:00,75.8,59.5,30.02,SE,138,1.0,9.0,57,0.00,,FEW,0.00,VWS V14.01,2013-08-18 21:48:00,
2013-08-18 14:53:00,75.6,57.8,30.02,NE,40,1.0,9.0,54,0.00,,FEW,0.00,VWS V14.01,2013-08-18 21:53:00,
2013-08-18 14:58:00,76.3,60.0,30.02,SE,128,0.0,9.0,57,0.00,,FEW,0.00,VWS V14.01,2013-08-18 21:58:00,
2013-08-18 15:03:00,77.2,57.1,30.01,South,173,2.0,5.0,50,0.00,,FEW,0.00,VWS V14.01,2013-08-18 22:03:00,
2013-08-18 15:08:00,77.4,60.0,30.01,SSW,210,0.0,6.0,55,0.00,,FEW,0.00,VWS V14.01,2013-08-18 22:08:00,
2013-08-18 15:13:00,76.7,58.3,30.01,South,171,5.0,10.0,53,0.00,,FEW,0.00,VWS V14.01,2013-08-18 22:13:00,
2013-08-18 15:18:00,75.8,56.4,30.02,South,189,5.0,10.0,51,0.00,,FEW,0.00,VWS V14.01,2013-08-18 22:18:00,
2013-08-18 15:23:00,75.6,57.3,30.02,SE,141,2.0,10.0,53,0.00,,FEW,0.00,VWS V14.01,2013-08-18 22:23:00,
2013-08-18 15:28:00,76.0,58.7,30.02,SSW,193,2.0,10.0,55,0.00,,FEW,0.00,VWS V14.01,2013-08-18 22:28:00,
2013-08-18 15:34:00,76.1,58.3,30.01,South,190,4.0,9.0,54,0.00,,FEW,0.00,VWS V14.01,2013-08-18 22:34:00,
2013-08-18 15:38:00,75.8,57.5,30.01,SE,135,2.0,9.0,53,0.00,,FEW,0.00,VWS V14.01,2013-08-18 22:38:00,
2013-08-18 15:44:00,75.8,58.0,30.01,SSW,196,1.0,9.0,54,0.00,,FEW,0.00,VWS V14.01,2013-08-18 22:44:00,
2013-08-18 15:49:00,76.3,58.5,30.01,South,185,6.0,9.0,54,0.00,,FEW,0.00,VWS V14.01,2013-08-18 22:49:00,
2013-08-18 15:54:00,76.7,57.2,30.01,SSE,148,0.0,9.0,51,0.00,,FEW,0.00,VWS V14.01,2013-08-18 22:54:00,
2013-08-18 15:59:00,76.8,57.3,30.01,NNW,345,5.0,9.0,51,0.00,,FEW,0.00,VWS V14.01,2013-08-18 22:59:00,
2013-08-18 16:04:00,77.0,59.6,30.00,South,189,2.0,6.0,55,0.00,,FEW,0.00,VWS V14.01,2013-08-18 23:04:00,
2013-08-18 16:09:00,77.4,57.3,30.00,North,5,1.0,7.0,50,0.00,,FEW,0.00,VWS V14.01,2013-08-18 23:09:00,
2013-08-18 16:14:00,77.7,57.6,30.01,South,174,2.0,7.0,50,0.00,,FEW,0.00,VWS V14.01,2013-08-18 23:14:00,
2013-08-18 16:19:00,77.7,59.8,30.01,SSW,207,2.0,7.0,54,0.00,,FEW,0.00,VWS V14.01,2013-08-18 23:19:00,
2013-08-18 16:24:00,77.0,59.1,30.01,ESE,118,3.0,7.0,54,0.00,,FEW,0.00,VWS V14.01,2013-08-18 23:24:00,
2013-08-18 16:29:00,76.7,57.8,30.00,SE,135,2.0,7.0,52,0.00,,FEW,0.00,VWS V14.01,2013-08-18 23:29:00,
2013-08-18 16:34:00,76.1,58.8,30.00,SE,140,1.0,7.0,55,0.00,,FEW,0.00,VWS V14.01,2013-08-18 23:34:00,
2013-08-18 16:39:00,76.0,58.7,30.00,ESE,121,1.0,7.0,55,0.00,,FEW,0.00,VWS V14.01,2013-08-18 23:39:00,
2013-08-18 16:44:00,76.3,59.0,30.00,South,174,0.0,7.0,55,0.00,,FEW,0.00,VWS V14.01,2013-08-18 23:44:00,
2013-08-18 16:49:00,76.5,58.6,30.00,East,93,0.0,7.0,54,0.00,,FEW,0.00,VWS V14.01,2013-08-18 23:49:00,
2013-08-18 16:54:00,76.1,58.8,30.00,NNE,33,0.0,7.0,55,0.00,,FEW,0.00,VWS V14.01,2013-08-18 23:54:00,
2013-08-18 16:59:00,75.6,58.3,30.00,NE,47,1.0,7.0,55,0.00,,FEW,0.00,VWS V14.01,2013-08-18 23:59:00,
2013-08-18 17:04:00,75.4,58.1,30.00,ENE,62,1.0,3.0,55,0.00,,FEW,0.00,VWS V14.01,2013-08-19 00:04:00,
2013-08-18 17:09:00,75.4,57.6,30.00,East,97,0.0,5.0,54,0.00,,FEW,0.00,VWS V14.01,2013-08-19 00:09:00,
2013-08-18 17:14:00,75.4,58.1,30.00,ENE,60,0.0,5.0,55,0.00,,FEW,0.00,VWS V14.01,2013-08-19 00:14:00,
2013-08-18 17:19:00,75.3,58.5,30.00,SSE,155,2.0,5.0,56,0.00,,FEW,0.00,VWS V14.01,2013-08-19 00:19:00,
2013-08-18 17:24:00,74.9,58.7,30.00,SSE,165,0.0,5.0,57,0.00,,FEW,0.00,VWS V14.01,2013-08-19 00:24:00,
2013-08-18 17:29:00,74.7,59.0,30.00,East,89,1.0,8.0,58,0.00,,FEW,0.00,VWS V14.01,2013-08-19 00:29:00,
2013-08-18 17:34:00,74.7,58.5,30.00,NNW,336,0.0,5.0,57,0.00,,FEW,0.00,VWS V14.01,2013-08-19 00:34:00,
2013-08-18 17:39:00,74.7,59.0,30.00,East,88,0.0,5.0,58,0.00,,FEW,0.00,VWS V14.01,2013-08-19 00:39:00,
2013-08-18 17:44:00,74.6,58.9,30.00,East,89,0.0,5.0,58,0.00,,FEW,0.00,VWS V14.01,2013-08-19 00:44:00,
2013-08-18 17:49:00,74.4,58.7,30.00,ENE,75,0.0,5.0,58,0.00,,FEW,0.00,VWS V14.01,2013-08-19 00:49:00,
2013-08-18 17:54:00,74.2,59.0,30.00,South,174,1.0,5.0,59,0.00,,FEW,0.00,VWS V14.01,2013-08-19 00:54:00,
2013-08-18 17:59:00,73.9,58.7,30.00,South,171,0.0,5.0,59,0.00,,FEW,0.00,VWS V14.01,2013-08-19 00:59:00,
2013-08-18 18:04:00,73.7,59.9,30.00,SSW,211,0.0,2.0,62,0.00,,FEW,0.00,VWS V14.01,2013-08-19 01:04:00,
2013-08-18 18:09:00,73.3,59.0,30.00,ENE,62,1.0,3.0,61,0.00,,FEW,0.00,VWS V14.01,2013-08-19 01:09:00,
2013-08-18 18:14:00,73.0,59.2,30.00,South,175,1.0,6.0,62,0.00,,FEW,0.00,VWS V14.01,2013-08-19 01:14:00,
2013-08-18 18:20:00,72.8,58.6,30.00,ESE,107,2.0,6.0,61,0.00,,FEW,0.00,VWS V14.01,2013-08-19 01:20:00,
2013-08-18 18:25:00,72.8,58.6,30.00,SSE,168,3.0,6.0,61,0.00,,FEW,0.00,VWS V14.01,2013-08-19 01:25:00,
2013-08-18 18:30:00,72.8,58.6,29.99,SSE,153,0.0,6.0,61,0.00,,FEW,0.00,VWS V14.01,2013-08-19 01:30:00,
2013-08-18 18:35:00,72.7,58.9,29.99,SE,137,1.0,2.0,62,0.00,,FEW,0.00,VWS V14.01,2013-08-19 01:35:00,
2013-08-18 18:40:00,72.8,59.0,29.99,South,176,2.0,4.0,62,0.00,,FEW,0.00,VWS V14.01,2013-08-19 01:40:00,
2013-08-18 18:45:00,72.7,58.5,29.99,South,186,1.0,5.0,61,0.00,,FEW,0.00,VWS V14.01,2013-08-19 01:45:00,
2013-08-18 18:50:00,72.7,58.9,29.99,ESE,118,0.0,5.0,62,0.00,,FEW,0.00,VWS V14.01,2013-08-19 01:50:00,
2013-08-18 18:55:00,72.7,58.0,29.99,NE,41,0.0,5.0,60,0.00,,FEW,0.00,VWS V14.01,2013-08-19 01:55:00,
2013-08-18 19:00:00,72.7,58.5,29.99,South,182,0.0,0.0,61,0.00,,FEW,0.00,VWS V14.01,2013-08-19 02:00:00,
2013-08-18 19:05:00,72.3,58.6,29.99,SSW,193,0.0,3.0,62,0.00,,FEW,0.00,VWS V14.01,2013-08-19 02:05:00,
2013-08-18 19:10:00,72.1,59.3,29.99,South,191,0.0,4.0,64,0.00,,FEW,0.00,VWS V14.01,2013-08-19 02:10:00,
2013-08-18 19:15:00,72.0,59.6,29.99,SE,133,0.0,4.0,65,0.00,,FEW,0.00,VWS V14.01,2013-08-19 02:15:00,
2013-08-18 19:20:00,71.8,58.1,29.99,South,185,0.0,5.0,62,0.00,,FEW,0.00,VWS V14.01,2013-08-19 02:20:00,
2013-08-18 19:25:00,71.8,58.1,29.99,South,185,0.0,5.0,62,0.00,,FEW,0.00,VWS V14.01,2013-08-19 02:25:00,
2013-08-18 19:30:00,71.8,58.5,29.99,South,185,0.0,1.0,63,0.00,,FEW,0.00,VWS V14.01,2013-08-19 02:30:00,
2013-08-18 19:35:00,71.8,58.5,29.99,South,185,0.0,1.0,63,0.00,,FEW,0.00,VWS V14.01,2013-08-19 02:35:00,
2013-08-18 19:40:00,71.6,58.3,29.99,South,185,0.0,1.0,63,0.00,,FEW,0.00,VWS V14.01,2013-08-19 02:40:00,
2013-08-18 19:45:00,71.5,58.7,29.99,South,185,0.0,1.0,64,0.00,,FEW,0.00,VWS V14.01,2013-08-19 02:45:00,
2013-08-18 19:50:00,71.5,58.7,29.99,South,185,0.0,1.0,64,0.00,,FEW,0.00,VWS V14.01,2013-08-19 02:50:00,
2013-08-18 19:55:00,71.3,58.5,29.99,South,185,0.0,1.0,64,0.00,,FEW,0.00,VWS V14.01,2013-08-19 02:55:00,
2013-08-18 20:00:00,71.3,58.1,29.99,ENE,66,0.0,0.0,63,0.00,,FEW,0.00,VWS V14.01,2013-08-19 03:00:00,
2013-08-18 20:05:00,71.1,58.8,29.99,ENE,66,0.0,0.0,65,0.00,,FEW,0.00,VWS V14.01,2013-08-19 03:05:00,
2013-08-18 20:10:00,71.1,58.3,29.99,ENE,66,0.0,0.0,64,0.00,,FEW,0.00,VWS V14.01,2013-08-19 03:10:00,
2013-08-18 20:15:00,70.9,58.1,29.99,ENE,66,0.0,0.0,64,0.00,,FEW,0.00,VWS V14.01,2013-08-19 03:15:00,
2013-08-18 20:20:00,70.8,58.5,29.99,ENE,66,0.0,0.0,65,0.00,,FEW,0.00,VWS V14.01,2013-08-19 03:20:00,
2013-08-18 20:26:00,70.8,58.9,29.99,ENE,66,0.0,0.0,66,0.00,,FEW,0.00,VWS V14.01,2013-08-19 03:26:00,
2013-08-18 20:31:00,70.6,58.7,29.99,ENE,66,0.0,0.0,66,0.00,,FEW,0.00,VWS V14.01,2013-08-19 03:31:00,
2013-08-18 20:36:00,70.4,58.9,29.99,ENE,66,0.0,0.0,67,0.00,,FEW,0.00,VWS V14.01,2013-08-19 03:36:00,
2013-08-18 20:41:00,70.3,58.0,29.99,ENE,66,0.0,1.0,65,0.00,,FEW,0.00,VWS V14.01,2013-08-19 03:41:00,
2013-08-18 20:46:00,70.1,57.8,30.00,ENE,66,0.0,1.0,65,0.00,,FEW,0.00,VWS V14.01,2013-08-19 03:46:00,
2013-08-18 20:51:00,69.9,57.6,30.00,ENE,66,0.0,1.0,65,0.00,,FEW,0.00,VWS V14.01,2013-08-19 03:51:00,
2013-08-18 20:56:00,69.9,58.0,30.00,ENE,66,0.0,1.0,66,0.00,,FEW,0.00,VWS V14.01,2013-08-19 03:56:00,
2013-08-18 21:01:00,69.8,57.9,30.00,ENE,66,0.0,0.0,66,0.00,,FEW,0.00,VWS V14.01,2013-08-19 04:01:00,
2013-08-18 21:02:00,69.8,57.9,30.00,ENE,66,0.0,0.0,66,0.00,,FEW,0.00,VWS V14.01,2013-08-19 04:02:00,
2013-08-18 21:07:00,69.6,57.8,30.00,ENE,66,0.0,0.0,66,0.00,,FEW,0.00,VWS V14.01,2013-08-19 04:07:00,
2013-08-18 21:12:00,69.4,57.6,30.00,ENE,66,0.0,0.0,66,0.00,,FEW,0.00,VWS V14.01,2013-08-19 04:12:00,
2013-08-18 21:17:00,69.4,57.6,30.00,ENE,66,0.0,0.0,66,0.00,,FEW,0.00,VWS V14.01,2013-08-19 04:17:00,
2013-08-18 21:22:00,69.3,57.9,30.00,ENE,66,0.0,0.0,67,0.00,,FEW,0.00,VWS V14.01,2013-08-19 04:22:00,
2013-08-18 21:27:00,69.1,57.7,30.00,ENE,66,0.0,0.0,67,0.00,,FEW,0.00,VWS V14.01,2013-08-19 04:27:00,
2013-08-18 21:32:00,69.1,57.7,30.00,ENE,66,0.0,0.0,67,0.00,,FEW,0.00,VWS V14.01,2013-08-19 04:32:00,
2013-08-18 21:38:00,68.9,57.1,30.00,ENE,66,0.0,0.0,66,0.00,,FEW,0.00,VWS V14.01,2013-08-19 04:38:00,
2013-08-18 21:43:00,68.8,57.4,30.00,ENE,66,0.0,0.0,67,0.00,,FEW,0.00,VWS V14.01,2013-08-19 04:43:00,
2013-08-18 21:48:00,68.8,57.4,30.01,ENE,66,0.0,0.0,67,0.00,,FEW,0.00,VWS V14.01,2013-08-19 04:48:00,
2013-08-18 21:53:00,68.6,57.2,30.01,ENE,66,0.0,0.0,67,0.00,,FEW,0.00,VWS V14.01,2013-08-19 04:53:00,
2013-08-18 21:58:00,68.4,57.4,30.01,ENE,66,0.0,0.0,68,0.00,,FEW,0.00,VWS V14.01,2013-08-19 04:58:00,
2013-08-18 22:03:00,68.3,56.9,30.00,ENE,66,0.0,0.0,67,0.00,,FEW,0.00,VWS V14.01,2013-08-19 05:03:00,
2013-08-18 22:08:00,68.1,56.7,30.00,ENE,66,0.0,0.0,67,0.00,,FEW,0.00,VWS V14.01,2013-08-19 05:08:00,
2013-08-18 22:13:00,68.1,57.2,30.00,ENE,66,0.0,0.0,68,0.00,,FEW,0.00,VWS V14.01,2013-08-19 05:13:00,
2013-08-18 22:18:00,67.9,57.0,30.01,ENE,66,0.0,0.0,68,0.00,,FEW,0.00,VWS V14.01,2013-08-19 05:18:00,
2013-08-18 22:23:00,67.8,57.3,30.01,ENE,66,0.0,0.0,69,0.00,,FEW,0.00,VWS V14.01,2013-08-19 05:23:00,
2013-08-18 22:28:00,67.6,57.1,30.01,ENE,66,0.0,0.0,69,0.00,,FEW,0.00,VWS V14.01,2013-08-19 05:28:00,
2013-08-18 22:33:00,67.4,56.9,30.00,ENE,66,0.0,0.0,69,0.00,,FEW,0.00,VWS V14.01,2013-08-19 05:33:00,
2013-08-18 22:38:00,67.3,56.8,30.00,ENE,66,0.0,0.0,69,0.00,,FEW,0.00,VWS V14.01,2013-08-19 05:38:00,
2013-08-18 22:43:00,67.3,57.2,30.00,ENE,66,0.0,0.0,70,0.00,,FEW,0.00,VWS V14.01,2013-08-19 05:43:00,
2013-08-18 22:48:00,67.1,57.0,30.00,ENE,66,0.0,0.0,70,0.00,,FEW,0.00,VWS V14.01,2013-08-19 05:48:00,
2013-08-18 22:53:00,66.9,56.8,30.00,ENE,66,0.0,0.0,70,0.00,,FEW,0.00,VWS V14.01,2013-08-19 05:53:00,
2013-08-18 22:58:00,66.8,57.1,30.00,ENE,66,0.0,0.0,71,0.00,,FEW,0.00,VWS V14.01,2013-08-19 05:58:00,
2013-08-18 23:03:00,66.6,56.9,30.01,ENE,66,0.0,0.0,71,0.00,,FEW,0.00,VWS V14.01,2013-08-19 06:03:00,
2013-08-18 23:08:00,66.3,56.2,30.01,ENE,66,0.0,0.0,70,0.00,,FEW,0.00,VWS V14.01,2013-08-19 06:08:00,
2013-08-18 23:13:00,66.3,56.6,30.01,ENE,66,0.0,0.0,71,0.00,,FEW,0.00,VWS V14.01,2013-08-19 06:13:00,
2013-08-18 23:18:00,66.1,56.4,30.01,ENE,66,0.0,0.0,71,0.00,,FEW,0.00,VWS V14.01,2013-08-19 06:18:00,
2013-08-18 23:23:00,66.0,56.3,30.01,ENE,66,0.0,0.0,71,0.00,,FEW,0.00,VWS V14.01,2013-08-19 06:23:00,
2013-08-18 23:28:00,66.0,56.7,30.01,ENE,66,0.0,0.0,72,0.00,,FEW,0.00,VWS V14.01,2013-08-19 06:28:00,
2013-08-18 23:33:00,65.8,56.5,30.01,ENE,66,0.0,0.0,72,0.00,,FEW,0.00,VWS V14.01,2013-08-19 06:33:00,
2013-08-18 23:38:00,65.6,56.3,30.01,ENE,66,0.0,0.0,72,0.00,,FEW,0.00,VWS V14.01,2013-08-19 06:38:00,
2013-08-18 23:43:00,65.5,56.6,30.01,ENE,66,0.0,0.0,73,0.00,,FEW,0.00,VWS V14.01,2013-08-19 06:43:00,
2013-08-18 23:48:00,65.3,56.4,30.01,ENE,66,0.0,0.0,73,0.00,,FEW,0.00,VWS V14.01,2013-08-19 06:48:00,
2013-08-18 23:53:00,65.2,56.3,30.01,ENE,66,0.0,0.0,73,0.00,,FEW,0.00,VWS V14.01,2013-08-19 06:53:00,
2013-08-18 23:58:00,65.0,56.2,30.01,ENE,66,0.0,0.0,73,0.00,,FEW,0.00,VWS V14.01,2013-08-19 06:58:00,